Waterville, MN

5:06 PM CST on March 03, 2015 (GMT -0600)
APRSWXNET Morristown MN US | Change Station
CLOSE
Current Station
Personal Weather Station
Location: Morristown, MN
Elevation: 1003 ft
Nearby Weather Stations

Elev 1003 ft 44.22 °N, 93.44 °W | Updated 33 minutes ago

Mostly Cloudy
Mostly Cloudy
20 °F
Feels Like 11 °F
N
7
Wind Variable Wind from West
Gusts 12.0 mph

Today
High -- | Low -- °F
--% Chance of Precip.
Yesterday
High -- | Low -- °F
Precip. -- in
6:48 AM 6:04 PM
Waxing Gibbous, 97% visible
Pressure 29.84 in
Visibility 5.0 miles
Clouds Scattered Clouds 700 ft
Mostly Cloudy 1500 ft
Windchill 11 °F
Dew Point 15 °F
Humidity 81%
Rainfall 0.00 in
Snow Depth Not available.
UV 0 out of 12
Pollen .50 out of 12
Air Quality Not available.
Flu Activity Not available.
METAR KACQ 032239Z AUTO 30020G26KT 5SM HZ SCT007 BKN015 M07/M10 A2984 RMK AO2

More Conditions Fewer Conditions

Pressure 29.84 in
Visibility 5.0 miles
Clouds Scattered Clouds 700 ft
Mostly Cloudy 1500 ft
Windchill 11 °F
Dew Point 15 °F
Humidity 81%
Rainfall 0.00 in
Snow Depth Not available.
UV 0 out of 12
Pollen .50 out of 12
Air Quality Not available.
Flu Activity Not available.
METAR KACQ 032239Z AUTO 30020G26KT 5SM HZ SCT007 BKN015 M07/M10 A2984 RMK AO2

More Conditions Fewer Conditions

10-Day Weather Forecast

Almanac

Astronomy

Mar. 03, 2015 Rise Set
Actual Time
Civil Twilight
Nautical Twilight
Astronomical Twilight
Moon
Length of Visible Light
Length of Day
Tomorrow will be .
, % of the Moon is Illuminated

Today's Extremes

State Highs State Lows

Community

WunderPhotos

Upload Photos

1,802,299 photos uploaded!

WunderBlogs® & News

Nearby

Air Quality

  Air Quality AQ Index Pollutant
Not available.

Snow Depth

Station Depth Elevation

Earthquake Activity

City Distance Mag. Time & Date
Minimum magnitude displayed is 2.5.

Coastal Water Temperatures

Place Temperature

Nearby Weather Stations